Time;durP1;ratioP1;P1;durP2;ratioP2;P2;SDS_P1;SDS_P2;PMS_P1;PMS_P2;Temp;Humidity;BMP_temperature;BMP_pressure;BME280_temperature;BME280_humidity;BME280_pressure;Samples;Min_cycle;Max_cycle;Signal;HPM_P1;HPM_P2
2022/09/22 00:01:07;;;;;;;;;;;;;;;-144.99;89.48;52211.66;5067710;28;19925;-75
2022/09/22 00:03:35;;;;;;;;;;;;;;;-144.99;89.11;52289.13;5065357;28;19928;-79
2022/09/22 00:06:02;;;;;;;;;;;;;;;-144.99;89.34;52256.50;5073328;28;19935;-80
2022/09/22 00:08:31;;;;;;;;;;;;;;;-144.99;88.92;52232.03;5072689;28;20023;-79
2022/09/22 00:11:04;;;;;;;;;;;;;;;-144.99;88.56;52260.56;5072029;28;20166;-80
2022/09/22 00:13:33;;;;;;;;;;;;;;;-144.99;88.42;52305.41;5069893;28;19980;-77
2022/09/22 00:16:00;;;;;;;;;;;;;;;-144.99;88.63;52236.13;5059961;28;19935;-77
2022/09/22 00:18:26;;;;;;;;;;;;;;;-144.99;89.18;52264.66;5067162;28;19970;-76
2022/09/22 00:20:53;;;;;;;;;;;;;;;-144.99;89.42;52268.72;5069337;28;19925;-76
2022/09/22 00:23:20;;;;;;;;;;;;;;;-144.99;89.71;52258.53;5057151;28;20001;-78
2022/09/22 00:25:47;;;;;;;;;;;;;;;-144.99;89.72;52264.66;5072966;28;20167;-80
2022/09/22 00:28:13;;;;;;;;;;;;;;;-144.99;89.77;52260.56;5071839;28;19925;-82
2022/09/22 00:30:42;;;;;;;;;;;;;;;-144.99;89.83;52285.03;5059858;28;19931;-81
2022/09/22 00:33:09;;;;;;;;;;;;;;;-144.99;90.06;52264.66;5057492;28;20298;-78
2022/09/22 00:35:36;;;;;;;;;;;;;;;-144.99;90.19;52272.81;5074316;28;19928;-81
2022/09/22 00:38:04;;;;;;;;;;;;;;;-144.99;90.27;52289.13;5058594;28;19963;-81
2022/09/22 00:40:31;;;;;;;;;;;;;;;-144.99;90.40;52285.03;5066841;28;19935;-81
2022/09/22 00:43:11;;;;;;;;;;;;;;;-144.99;91.04;52268.72;5069269;28;20251;-77
2022/09/22 00:45:38;;;;;;;;;;;;;;;-144.99;91.05;52262.63;5067505;28;19929;-83
2022/09/22 00:48:05;;;;;;;;;;;;;;;-144.99;91.14;52280.97;5065006;28;19925;-82
2022/09/22 00:50:32;;;;;;;;;;;;;;;-144.99;91.09;52283.00;5069657;28;20265;-81
2022/09/22 00:53:00;;;;;;;;;;;;;;;-144.99;91.04;52266.69;5049808;28;19946;-81
2022/09/22 00:55:29;;;;;;;;;;;;;;;-144.99;90.77;52236.13;5056547;28;19928;-80
2022/09/22 00:57:56;;;;;;;;;;;;;;;-144.99;90.15;52301.34;5062412;28;19924;-79
2022/09/22 01:00:23;;;;;;;;;;;;;;;-144.99;89.93;52301.34;5071293;28;19924;-76
2022/09/22 01:02:50;;;;;;;;;;;;;;;-144.99;89.62;52246.31;5070429;28;19929;-79
2022/09/22 01:05:19;;;;;;;;;;;;;;;-144.99;89.26;52276.88;5076547;28;19931;-79
2022/09/22 01:07:46;;;;;;;;;;;;;;;-144.99;89.25;52276.88;5055966;28;19932;-79
2022/09/22 01:10:12;;;;;;;;;;;;;;;-144.99;89.50;52236.13;5060279;28;19941;-78
2022/09/22 01:12:41;;;;;;;;;;;;;;;-144.99;90.05;52283.00;5070557;28;19935;-79
2022/09/22 01:15:13;;;;;;;;;;;;;;;-144.99;89.81;52240.19;5071723;28;19932;-80
2022/09/22 01:17:49;;;;;;;;;;;;;;;-144.99;90.60;52252.44;5068860;28;20030;-79
2022/09/22 01:20:27;;;;;;;;;;;;;;;-144.99;90.70;52227.97;5061561;28;20031;-80
2022/09/22 01:23:08;;;;;;;;;;;;;;;-144.99;91.24;52234.09;5067397;28;19936;-82
2022/09/22 01:25:50;;;;;;;;;;;;;;;-144.99;92.35;52246.31;5058356;28;20254;-81
2022/09/22 01:28:29;;;;;;;;;;;;;;;-144.99;93.40;52285.03;5061525;28;19924;-80
2022/09/22 01:30:59;;;;;;;;;;;;;;;-144.99;93.55;52272.81;5066034;28;20304;-81
2022/09/22 01:33:32;;;;;;;;;;;;;;;-144.99;93.74;52232.03;5070766;28;20296;-81
2022/09/22 01:36:06;;;;;;;;;;;;;;;-144.99;94.13;52276.88;5073014;28;19928;-74
2022/09/22 01:38:35;;;;;;;;;;;;;;;-144.99;94.60;52280.97;5056833;28;19924;-77
2022/09/22 01:41:03;;;;;;;;;;;;;;;-144.99;94.22;52272.81;5071080;28;19925;-76
2022/09/22 01:43:34;;;;;;;;;;;;;;;-144.99;94.97;52297.25;5066247;28;19924;-77
2022/09/22 01:46:03;;;;;;;;;;;;;;;-144.99;95.27;52248.34;5067924;28;20071;-77
2022/09/22 01:48:31;;;;;;;;;;;;;;;-144.99;95.81;52240.19;5065776;28;19939;-80
2022/09/22 01:51:00;;;;;;;;;;;;;;;-144.99;95.77;52301.34;5067807;28;20407;-80
2022/09/22 01:53:37;;;;;;;;;;;;;;;-144.99;95.94;52258.53;5071405;28;19924;-79
2022/09/22 01:56:05;;;;;;;;;;;;;;;-144.99;96.10;52285.03;5069358;28;20292;-77
2022/09/22 01:58:33;;;;;;;;;;;;;;;-144.99;96.36;52268.72;5058298;28;19925;-81
2022/09/22 02:01:02;;;;;;;;;;;;;;;-144.99;97.12;52297.25;5071592;28;19929;-80
2022/09/22 02:03:35;;;;;;;;;;;;;;;-144.99;97.17;52280.97;5070952;28;19928;-79
2022/09/22 02:06:05;;;;;;;;;;;;;;;-144.99;96.61;52297.25;5089478;28;20393;-78
2022/09/22 02:08:35;;;;;;;;;;;;;;;-144.99;96.06;52280.97;5073805;28;19929;-79
2022/09/22 02:11:03;;;;;;;;;;;;;;;-144.99;95.46;52333.94;5087627;28;19966;-77
2022/09/22 02:13:30;;;;;;;;;;;;;;;-144.99;94.67;52293.19;5091454;28;20399;-75
2022/09/22 02:16:02;;;;;;;;;;;;;;;-144.99;94.27;52264.66;5089831;28;19972;-79
2022/09/22 02:18:33;;;;;;;;;;;;;;;-144.99;93.97;52305.41;5067984;28;19975;-79
2022/09/22 02:21:00;;;;;;;;;;;;;;;-144.99;93.63;52270.78;5085889;28;19984;-80
2022/09/22 02:23:27;;;;;;;;;;;;;;;-144.99;93.26;52276.88;5078735;28;19924;-76
2022/09/22 02:25:54;;;;;;;;;;;;;;;-144.99;93.61;52289.13;5071386;28;19935;-79
2022/09/22 02:28:22;;;;;;;;;;;;;;;-144.99;93.39;52305.41;5067862;28;20233;-79
2022/09/22 02:30:50;;;;;;;;;;;;;;;-144.99;93.38;52285.03;5075659;28;19990;-79
2022/09/22 02:33:18;;;;;;;;;;;;;;;-144.99;93.36;52301.34;5058027;28;19925;-79
2022/09/22 02:35:48;;;;;;;;;;;;;;;-144.99;92.76;52301.34;5092000;28;20097;-79
2022/09/22 02:38:19;;;;;;;;;;;;;;;-144.99;92.65;52268.72;5084880;28;20139;-78
2022/09/22 02:40:48;;;;;;;;;;;;;;;-144.99;92.23;52280.97;5064684;28;19929;-76
2022/09/22 02:43:17;;;;;;;;;;;;;;;-144.99;91.88;52262.63;5069845;28;19931;-76
2022/09/22 02:45:46;;;;;;;;;;;;;;;-144.99;92.03;52317.66;5071099;28;19924;-77
2022/09/22 02:48:15;;;;;;;;;;;;;;;-144.99;92.11;52303.38;5062611;28;19924;-76
2022/09/22 02:50:42;;;;;;;;;;;;;;;-144.99;92.21;52293.19;5063684;28;19925;-76
2022/09/22 02:53:12;;;;;;;;;;;;;;;-144.99;92.49;52319.69;5067664;28;19924;-76
2022/09/22 02:55:39;;;;;;;;;;;;;;;-144.99;92.82;52293.19;5071950;28;19948;-76
2022/09/22 02:58:05;;;;;;;;;;;;;;;-144.99;93.40;52264.66;5070569;28;19940;-76
2022/09/22 03:00:31;;;;;;;;;;;;;;;-144.99;92.93;52248.34;5063016;28;19931;-76
2022/09/22 03:02:58;;;;;;;;;;;;;;;-144.99;92.63;52333.94;5058591;28;19931;-78
2022/09/22 03:05:24;;;;;;;;;;;;;;;-144.99;92.19;52289.13;5070376;28;19937;-78
2022/09/22 03:07:51;;;;;;;;;;;;;;;-144.99;91.89;52321.72;5068757;28;20513;-78
2022/09/22 03:10:18;;;;;;;;;;;;;;;-144.99;91.10;52289.13;5061922;28;19931;-77
2022/09/22 03:12:45;;;;;;;;;;;;;;;-144.99;90.88;52293.19;5070954;28;20031;-78
2022/09/22 03:15:11;;;;;;;;;;;;;;;-144.99;91.04;52283.00;5072559;28;20303;-78
2022/09/22 03:17:38;;;;;;;;;;;;;;;-144.99;91.07;52336.00;5068375;28;20016;-79
2022/09/22 03:20:06;;;;;;;;;;;;;;;-144.99;91.44;52297.25;5070850;28;19929;-77
2022/09/22 03:22:32;;;;;;;;;;;;;;;-144.99;91.19;52291.16;5071043;28;19928;-74
2022/09/22 03:24:59;;;;;;;;;;;;;;;-144.99;91.23;52305.41;5070219;28;19929;-78
2022/09/22 03:27:26;;;;;;;;;;;;;;;-144.99;91.14;52285.03;5068815;28;20402;-77
2022/09/22 03:29:53;;;;;;;;;;;;;;;-144.99;91.48;52321.72;5067999;28;19925;-79
2022/09/22 03:32:20;;;;;;;;;;;;;;;-144.99;91.21;52317.66;5054774;28;19925;-77
2022/09/22 03:34:46;;;;;;;;;;;;;;;-144.99;90.80;52329.88;5068106;28;19928;-80
2022/09/22 03:37:13;;;;;;;;;;;;;;;-144.99;90.79;52295.22;5063388;28;19924;-80
2022/09/22 03:39:39;;;;;;;;;;;;;;;-144.99;90.45;52291.16;5072349;28;19935;-81
2022/09/22 03:42:06;;;;;;;;;;;;;;;-144.99;90.56;52291.16;5073262;28;19924;-79
2022/09/22 03:44:34;;;;;;;;;;;;;;;-144.99;91.06;52293.19;5076121;28;19928;-77
2022/09/22 03:47:00;;;;;;;;;;;;;;;-144.99;91.37;52301.34;5077665;28;19923;-75
2022/09/22 03:49:27;;;;;;;;;;;;;;;-144.99;91.85;52289.13;5092443;28;19987;-76
2022/09/22 03:51:53;;;;;;;;;;;;;;;-144.99;92.24;52309.50;5081014;28;20444;-76
2022/09/22 03:56:48;;;;;;;;;;;;;;;-144.99;92.63;52297.25;5099369;28;19924;-74
2022/09/22 03:59:15;;;;;;;;;;;;;;;-144.99;93.14;52313.56;5102161;28;19924;-73
2022/09/22 04:01:43;;;;;;;;;;;;;;;-144.99;93.36;52260.56;5104466;28;19927;-72
2022/09/22 04:04:09;;;;;;;;;;;;;;;-144.99;93.34;52289.13;5096467;28;19924;-72
2022/09/22 04:06:37;;;;;;;;;;;;;;;-144.99;93.58;52311.53;5090336;28;20295;-73
2022/09/22 04:09:04;;;;;;;;;;;;;;;-144.99;93.68;52321.72;5079270;28;19985;-73
2022/09/22 04:11:30;;;;;;;;;;;;;;;-144.99;93.58;52248.34;5085866;28;20387;-72
2022/09/22 04:13:58;;;;;;;;;;;;;;;-144.99;93.49;52285.03;5072384;28;19925;-72
2022/09/22 04:16:27;;;;;;;;;;;;;;;-144.99;93.13;52301.34;5090820;28;19928;-72
2022/09/22 04:18:55;;;;;;;;;;;;;;;-144.99;92.94;52313.56;5090784;28;20306;-74
2022/09/22 04:21:21;;;;;;;;;;;;;;;-144.99;92.75;52278.91;5092372;28;19924;-73
2022/09/22 04:23:47;;;;;;;;;;;;;;;-144.99;93.04;52272.81;5077010;28;19925;-72
2022/09/22 04:26:14;;;;;;;;;;;;;;;-144.99;93.23;52325.81;5090228;28;20301;-73
2022/09/22 04:28:40;;;;;;;;;;;;;;;-144.99;93.92;52319.69;5090139;28;19931;-72
2022/09/22 04:31:06;;;;;;;;;;;;;;;-144.99;94.58;52291.16;5091605;28;19924;-72
2022/09/22 04:33:33;;;;;;;;;;;;;;;-144.99;94.78;52285.03;5079955;28;20321;-73
2022/09/22 04:36:01;;;;;;;;;;;;;;;-144.99;94.85;52325.81;5089243;28;20011;-72
2022/09/22 04:38:27;;;;;;;;;;;;;;;-144.99;94.67;52285.03;5081978;28;19924;-73
2022/09/22 04:40:53;;;;;;;;;;;;;;;-144.99;94.92;52264.66;5084091;28;19925;-73
2022/09/22 04:43:20;;;;;;;;;;;;;;;-144.99;95.00;52321.72;5084521;28;20319;-74
2022/09/22 04:45:47;;;;;;;;;;;;;;;-144.99;95.51;52305.41;5084266;28;20484;-73
2022/09/22 04:48:13;;;;;;;;;;;;;;;-144.99;95.68;52301.34;5089444;28;20410;-73
2022/09/22 04:50:40;;;;;;;;;;;;;;;-144.99;95.59;52305.41;5086420;28;20299;-73
2022/09/22 04:53:08;;;;;;;;;;;;;;;-144.99;95.14;52297.25;5084794;28;19924;-74
2022/09/22 04:55:34;;;;;;;;;;;;;;;-144.99;94.16;52309.50;5089746;28;19924;-73
2022/09/22 04:58:01;;;;;;;;;;;;;;;-144.99;94.22;52333.94;5090196;28;19928;-74
2022/09/22 05:00:28;;;;;;;;;;;;;;;-144.99;93.82;52256.50;5086092;28;19924;-74
2022/09/22 05:02:55;;;;;;;;;;;;;;;-144.99;94.67;52278.91;5086024;28;20326;-73
2022/09/22 05:05:22;;;;;;;;;;;;;;;-144.99;94.79;52301.34;5069195;28;19928;-73
2022/09/22 05:07:52;;;;;;;;;;;;;;;-144.99;95.08;52333.94;5086346;28;19928;-73
2022/09/22 05:10:23;;;;;;;;;;;;;;;-144.99;95.24;52305.41;5103146;28;19930;-73
2022/09/22 05:12:51;;;;;;;;;;;;;;;-144.99;95.04;52291.16;5095173;28;19999;-72
2022/09/22 05:15:17;;;;;;;;;;;;;;;-144.99;94.76;52293.19;5104479;28;19931;-73
2022/09/22 05:17:47;;;;;;;;;;;;;;;-144.99;94.91;52327.84;4392294;28;10000705;-73
2022/09/22 05:20:14;;;;;;;;;;;;;;;-144.99;94.74;52301.34;5092715;28;20019;-73
2022/09/22 05:22:40;;;;;;;;;;;;;;;-144.99;94.19;52333.94;5094404;28;19928;-73
2022/09/22 05:25:09;;;;;;;;;;;;;;;-144.99;93.84;52270.78;5088743;28;19950;-73
2022/09/22 05:27:37;;;;;;;;;;;;;;;-144.99;93.60;52280.97;5084970;28;19934;-74
2022/09/22 05:30:04;;;;;;;;;;;;;;;-144.99;93.40;52333.94;5079526;28;19981;-72
2022/09/22 05:32:30;;;;;;;;;;;;;;;-144.99;93.05;52285.03;5087599;28;20156;-73
2022/09/22 05:34:56;;;;;;;;;;;;;;;-144.99;92.59;52303.38;5100199;28;20473;-72
2022/09/22 05:37:23;;;;;;;;;;;;;;;-144.99;92.14;52317.66;5099575;28;19936;-72
2022/09/22 05:39:49;;;;;;;;;;;;;;;-144.99;91.98;52272.81;5090896;28;19925;-72
2022/09/22 05:42:16;;;;;;;;;;;;;;;-144.99;91.55;52285.03;5085939;28;19927;-73
2022/09/22 05:44:43;;;;;;;;;;;;;;;-144.99;91.08;52309.50;5069899;28;19939;-72
2022/09/22 05:47:10;;;;;;;;;;;;;;;-144.99;90.67;52272.81;5080876;28;19928;-72
2022/09/22 05:49:36;;;;;;;;;;;;;;;-144.99;90.28;52313.56;5086533;28;19928;-73
2022/09/22 05:52:02;;;;;;;;;;;;;;;-144.99;89.18;52293.19;5085869;28;19938;-73
2022/09/22 05:54:29;;;;;;;;;;;;;;;-144.99;88.61;52291.16;5077652;28;19928;-73
2022/09/22 05:56:55;;;;;;;;;;;;;;;-144.99;88.11;52301.34;5088013;28;20421;-73
2022/09/22 05:59:22;;;;;;;;;;;;;;;-144.99;87.77;52268.72;5087789;28;19931;-73
2022/09/22 06:01:49;;;;;;;;;;;;;;;-144.99;87.54;52272.81;5085683;28;19928;-72
2022/09/22 06:04:16;;;;;;;;;;;;;;;-144.99;86.91;52264.66;5083426;28;19934;-72
2022/09/22 06:06:42;;;;;;;;;;;;;;;-144.99;86.77;52260.56;5076114;28;20439;-73
2022/09/22 06:09:08;;;;;;;;;;;;;;;-144.99;86.35;52272.81;5082611;28;19928;-71
2022/09/22 06:11:35;;;;;;;;;;;;;;;-144.99;85.95;52252.44;5087475;28;20220;-71
2022/09/22 06:14:01;;;;;;;;;;;;;;;-144.99;85.67;52246.31;5086941;28;19924;-72
2022/09/22 06:16:27;;;;;;;;;;;;;;;-144.99;85.59;52246.31;5084415;28;19928;-72
2022/09/22 06:18:55;;;;;;;;;;;;;;;-144.99;85.71;52268.72;5083807;28;19932;-76
2022/09/22 06:21:22;;;;;;;;;;;;;;;-144.99;85.63;52260.56;5075765;28;19932;-72
2022/09/22 06:23:48;;;;;;;;;;;;;;;-144.99;85.26;52309.50;5080588;28;19971;-72
2022/09/22 06:26:15;;;;;;;;;;;;;;;-144.99;84.52;52264.66;5090180;28;19939;-73
2022/09/22 06:28:41;;;;;;;;;;;;;;;-144.99;83.76;52252.44;5086951;28;19939;-72
2022/09/22 06:31:32;;;;;;;;;;;;;;;-144.99;82.87;52268.72;5083733;28;19939;-73
2022/09/22 06:34:00;;;;;;;;;;;;;;;-144.99;82.73;52240.19;5083272;28;20388;-74
2022/09/22 06:36:30;;;;;;;;;;;;;;;-144.99;82.97;52256.50;5088778;28;20141;-73
2022/09/22 06:38:57;;;;;;;;;;;;;;;-144.99;83.18;52227.97;5078528;28;20285;-73
2022/09/22 06:41:24;;;;;;;;;;;;;;;-144.99;82.74;52254.47;5084604;28;19932;-72
2022/09/22 06:43:54;;;;;;;;;;;;;;;-144.99;82.60;52287.06;5085625;28;19967;-73
2022/09/22 06:46:22;;;;;;;;;;;;;;;-144.99;82.78;52236.13;5087209;28;20084;-73
2022/09/22 06:48:49;;;;;;;;;;;;;;;-144.99;82.42;52230.00;5079109;28;19934;-73
2022/09/22 06:51:17;;;;;;;;;;;;;;;-144.99;81.99;52256.50;5070464;28;19958;-74
2022/09/22 06:53:46;;;;;;;;;;;;;;;-144.99;81.59;52254.47;5083781;28;19939;-73
2022/09/22 06:56:12;;;;;;;;;;;;;;;-144.99;81.97;52244.28;5086503;28;20398;-73
2022/09/22 06:58:42;;;;;;;;;;;;;;;-144.99;81.46;52266.69;5086318;28;20409;-74
2022/09/22 07:01:08;;;;;;;;;;;;;;;-144.99;81.28;52244.28;5085998;28;19934;-73
2022/09/22 07:03:37;;;;;;;;;;;;;;;-144.99;80.68;52260.56;5085104;28;19932;-72
2022/09/22 07:06:05;;;;;;;;;;;;;;;-144.99;80.65;52240.19;5076689;28;19929;-72
2022/09/22 07:08:33;;;;;;;;;;;;;;;-144.99;80.14;52227.97;5074335;28;19928;-72
2022/09/22 07:11:01;;;;;;;;;;;;;;;-144.99;79.82;52232.03;5083597;28;19924;-73
2022/09/22 07:13:28;;;;;;;;;;;;;;;-144.99;79.57;52236.13;5087358;28;19973;-73
2022/09/22 07:15:59;;;;;;;;;;;;;;;-144.99;79.42;52232.03;5089087;28;20043;-73
2022/09/22 07:18:25;;;;;;;;;;;;;;;-144.99;79.08;52211.66;5089462;28;19977;-74
2022/09/22 07:20:51;;;;;;;;;;;;;;;-144.99;78.49;52207.59;5082835;28;20331;-72
2022/09/22 07:23:20;;;;;;;;;;;;;;;-144.99;77.35;52191.28;5087081;28;19928;-73
2022/09/22 07:25:52;;;;;;;;;;;;;;;-144.99;76.22;52252.44;5090938;28;19934;-74
2022/09/22 07:28:19;;;;;;;;;;;;;;;-144.99;75.58;52252.44;5089317;28;19991;-74
2022/09/22 07:30:46;;;;;;;;;;;;;;;-144.99;74.83;52258.53;5082914;28;20450;-73
2022/09/22 07:33:13;;;;;;;;;;;;;;;-144.99;74.58;52179.06;5066965;28;20012;-74
2022/09/22 07:35:39;;;;;;;;;;;;;;;-144.99;73.55;52195.34;5082604;28;20334;-74
2022/09/22 07:38:06;;;;;;;;;;;;;;;-144.99;72.11;52197.41;5083581;28;19939;-74
2022/09/22 07:40:32;;;;;;;;;;;;;;;-144.99;72.33;52234.09;5079926;28;19936;-71
2022/09/22 07:43:00;;;;;;;;;;;;;;;-144.99;71.18;52193.31;5071930;28;19935;-73
2022/09/22 07:45:26;;;;;;;;;;;;;;;-144.99;68.56;52195.34;5083727;28;20003;-74
2022/09/22 07:50:36;;;;;;;;;;;;;;;-144.99;65.95;52203.50;5081011;28;19951;-73
2022/09/22 07:53:03;;;;;;;;;;;;;;;-144.99;64.91;52162.75;5078040;28;19962;-73
2022/09/22 07:55:30;;;;;;;;;;;;;;;-144.99;63.89;52195.34;5075172;28;19928;-73
2022/09/22 07:57:57;;;;;;;;;;;;;;;-144.99;63.21;52179.06;5086392;28;19935;-73
2022/09/22 08:00:26;;;;;;;;;;;;;;;-144.99;64.17;52199.44;5087681;28;19939;-73
2022/09/22 08:02:54;;;;;;;;;;;;;;;-144.99;62.57;52174.97;5086058;28;20031;-73
2022/09/22 08:05:21;;;;;;;;;;;;;;;-144.99;61.07;52191.28;5087183;28;20403;-73
2022/09/22 08:07:47;;;;;;;;;;;;;;;-144.99;60.84;52219.81;5087075;28;20414;-73
2022/09/22 08:10:14;;;;;;;;;;;;;;;-144.99;60.60;52170.91;5082913;28;20583;-72
2022/09/22 08:12:41;;;;;;;;;;;;;;;-144.99;61.00;52174.97;5079646;28;19936;-72
2022/09/22 08:15:07;;;;;;;;;;;;;;;-144.99;61.03;52162.75;5084549;28;19981;-73
2022/09/22 08:17:36;;;;;;;;;;;;;;;-144.99;59.80;52154.59;5078615;28;19936;-72
2022/09/22 08:20:04;;;;;;;;;;;;;;;-144.99;58.54;52177.00;5085294;28;20322;-73
2022/09/22 08:22:30;;;;;;;;;;;;;;;-144.99;58.00;52199.44;5086406;28;19977;-73
2022/09/22 08:24:56;;;;;;;;;;;;;;;-144.99;58.26;52113.84;5084738;28;19928;-73
2022/09/22 08:27:23;;;;;;;;;;;;;;;-144.99;57.76;52179.06;5084449;28;19935;-73
2022/09/22 08:29:49;;;;;;;;;;;;;;;-144.99;56.33;52179.06;5083945;28;20206;-74
2022/09/22 08:32:16;;;;;;;;;;;;;;;-144.99;55.49;52166.81;5081077;28;19932;-74
2022/09/22 08:34:44;;;;;;;;;;;;;;;-144.99;54.36;52121.97;5080225;28;20035;-74
2022/09/22 08:37:12;;;;;;;;;;;;;;;-144.99;53.33;52172.94;5068393;28;19950;-74
2022/09/22 08:39:39;;;;;;;;;;;;;;;-144.99;52.41;52128.09;5082095;28;20298;-74
2022/09/22 08:42:10;;;;;;;;;;;;;;;-144.99;51.29;52097.53;5072096;28;19931;-73
2022/09/22 08:44:39;;;;;;;;;;;;;;;-144.99;50.52;52166.81;5072060;28;20399;-73
2022/09/22 08:47:05;;;;;;;;;;;;;;;-144.99;50.69;52146.44;5070225;28;19932;-74
2022/09/22 08:52:24;;;;;;;;;;;;;;;-144.99;49.26;52158.66;5075633;28;19950;-74
2022/09/22 08:54:51;;;;;;;;;;;;;;;-144.99;48.71;52142.38;5074610;28;19929;-75
2022/09/22 08:57:37;;;;;;;;;;;;;;;-144.99;48.76;52130.13;5085583;28;19928;-74
2022/09/22 09:00:05;;;;;;;;;;;;;;;-144.99;47.73;52105.69;5085174;28;19935;-74
2022/09/22 09:02:34;;;;;;;;;;;;;;;-144.99;46.55;52119.94;5082906;28;19927;-74
2022/09/22 09:05:07;;;;;;;;;;;;;;;-144.99;46.39;52103.66;5085664;28;19933;-75
2022/09/22 09:07:44;;;;;;;;;;;;;;;-144.99;45.91;52117.91;5088107;28;19928;-74
2022/09/22 09:10:23;;;;;;;;;;;;;;;-144.99;45.47;52083.25;5076123;28;20473;-74
2022/09/22 09:12:57;;;;;;;;;;;;;;;-144.99;44.96;52093.44;5087866;28;19931;-74
2022/09/22 09:15:33;;;;;;;;;;;;;;;-144.99;44.39;52069.00;5087756;28;19932;-74
2022/09/22 09:18:02;;;;;;;;;;;;;;;-144.99;43.68;52126.06;5072150;28;19928;-74
2022/09/22 09:20:31;;;;;;;;;;;;;;;-144.99;43.63;52091.41;5084438;28;19960;-74
2022/09/22 09:23:00;;;;;;;;;;;;;;;-144.99;42.77;52089.38;5088476;28;20035;-74
2022/09/22 09:25:33;;;;;;;;;;;;;;;-144.99;41.94;52069.00;5096607;28;19928;-74
2022/09/22 09:28:01;;;;;;;;;;;;;;;-144.99;41.64;52093.44;5087067;28;19927;-74
2022/09/22 09:30:32;;;;;;;;;;;;;;;-144.99;40.14;52077.16;5093141;28;19926;-74
2022/09/22 09:33:01;;;;;;;;;;;;;;;-144.99;37.72;52093.44;5080127;28;20386;-74
2022/09/22 09:35:34;;;;;;;;;;;;;;;-144.99;38.07;52077.16;5098432;28;19928;-75
2022/09/22 09:38:02;;;;;;;;;;;;;;;-144.99;38.04;52044.53;5072458;28;19982;-74
2022/09/22 09:40:28;;;;;;;;;;;;;;;-144.99;36.89;52044.53;5077075;28;19928;-74
2022/09/22 09:42:56;;;;;;;;;;;;;;;-144.99;36.65;51999.69;5077743;28;19928;-75
2022/09/22 09:45:26;;;;;;;;;;;;;;;-144.99;35.91;52020.09;5083737;28;19929;-75
2022/09/22 09:48:04;;;;;;;;;;;;;;;-144.99;34.55;52046.56;5080501;28;20397;-74
2022/09/22 09:50:30;;;;;;;;;;;;;;;-144.99;34.70;52073.06;5079412;28;19928;-74
2022/09/22 09:52:58;;;;;;;;;;;;;;;-144.99;34.94;52044.53;5083961;28;20382;-74
2022/09/22 09:55:26;;;;;;;;;;;;;;;-144.99;34.88;52032.31;5086741;28;20395;-72
2022/09/22 09:58:02;;;;;;;;;;;;;;;-144.99;34.52;52060.84;5127463;22;20394;-78
2022/09/22 10:00:31;;;;;;;;;;;;;;;-144.99;33.62;52003.78;5100378;28;19934;-78
2022/09/22 10:03:03;;;;;;;;;;;;;;;-144.99;33.38;52030.28;5116510;28;19928;-79
2022/09/22 10:05:30;;;;;;;;;;;;;;;-144.99;34.13;51987.47;5111217;28;19965;-79
2022/09/22 10:07:58;;;;;;;;;;;;;;;-144.99;33.29;51999.69;5102957;28;20032;-78
2022/09/22 10:10:32;;;;;;;;;;;;;;;-144.99;32.61;51967.09;5109392;28;19928;-78
2022/09/22 10:13:16;;;;;;;;;;;;;;;-144.99;32.48;51983.41;5113527;28;20228;-77
2022/09/22 10:15:42;;;;;;;;;;;;;;;-144.99;31.98;51954.88;5113716;28;19924;-79
2022/09/22 10:18:29;;;;;;;;;;;;;;;-144.99;31.83;51952.81;5104831;28;19928;-79
2022/09/22 10:21:01;;;;;;;;;;;;;;;-144.99;31.45;51950.78;5114801;28;20117;-79
2022/09/22 10:23:30;;;;;;;;;;;;;;;-144.99;31.56;51920.22;5111766;28;19987;-79
2022/09/22 10:26:13;;;;;;;;;;;;;;;-144.99;31.83;51932.44;5110670;28;19971;-78
2022/09/22 10:28:40;;;;;;;;;;;;;;;-144.99;32.22;51975.25;5115001;28;20205;-78
2022/09/22 10:31:06;;;;;;;;;;;;;;;-144.99;31.80;51942.63;5114417;28;19928;-79
2022/09/22 10:33:33;;;;;;;;;;;;;;;-144.99;32.08;51930.41;5115270;28;19928;-78
2022/09/22 10:36:04;;;;;;;;;;;;;;;-144.99;31.93;51918.19;5111505;28;19924;-77
2022/09/22 10:38:33;;;;;;;;;;;;;;;-144.99;30.97;51922.25;5116622;28;19924;-79
2022/09/22 10:41:03;;;;;;;;;;;;;;;-144.99;30.92;51865.19;5115964;28;19912;-81
2022/09/22 10:43:44;;;;;;;;;;;;;;;-144.99;30.55;51859.09;5127163;28;19928;-80
2022/09/22 10:46:33;;;;;;;;;;;;;;;-144.99;30.08;51857.03;5120755;28;19991;-79
2022/09/22 10:49:04;;;;;;;;;;;;;;;-144.99;30.05;51861.13;5109915;28;19939;-78
2022/09/22 10:51:40;;;;;;;;;;;;;;;-144.99;29.67;51899.84;5122573;28;19972;-80
2022/09/22 10:54:16;;;;;;;;;;;;;;;-144.99;29.88;51885.56;5118702;28;20050;-79
2022/09/22 10:56:46;;;;;;;;;;;;;;;-144.99;30.13;51861.13;5113326;28;19928;-79
2022/09/22 10:59:22;;;;;;;;;;;;;;;-144.99;30.02;51865.19;5121028;28;19963;-80
2022/09/22 11:01:59;;;;;;;;;;;;;;;-144.99;30.31;51861.13;5125797;28;20125;-78
2022/09/22 11:04:33;;;;;;;;;;;;;;;-144.99;29.95;51873.34;5114694;28;19981;-79
2022/09/22 11:12:43;;;;;;;;;;;;;;;-144.99;30.71;51899.84;5109442;28;20016;-76
2022/09/22 11:15:22;;;;;;;;;;;;;;;-144.99;30.09;51897.81;5102312;28;20014;-77
2022/09/22 11:18:07;;;;;;;;;;;;;;;-144.99;30.28;51832.59;5118062;28;19927;-78
2022/09/22 11:20:35;;;;;;;;;;;;;;;-144.99;29.61;51946.72;5104777;28;20004;-76
2022/09/22 11:23:23;;;;;;;;;;;;;;;-144.99;29.44;51832.59;5122277;28;19924;-81
2022/09/22 11:26:00;;;;;;;;;;;;;;;-144.99;28.98;51799.97;5121368;28;19943;-78
2022/09/22 11:28:45;;;;;;;;;;;;;;;-144.99;28.98;51967.09;5113701;28;20030;-80
2022/09/22 11:31:17;;;;;;;;;;;;;;;-144.99;29.85;51897.81;5096124;28;20164;-79
2022/09/22 11:34:01;;;;;;;;;;;;;;;-144.99;30.83;51893.72;5100771;28;19924;-77
2022/09/22 11:36:34;;;;;;;;;;;;;;;-144.99;30.07;51857.03;5112324;28;20545;-79
2022/09/22 11:39:19;;;;;;;;;;;;;;;-144.99;30.06;51912.06;5096168;28;19924;-77
2022/09/22 11:41:50;;;;;;;;;;;;;;;-144.99;29.09;51905.97;5103803;28;19928;-78
2022/09/22 11:44:43;;;;;;;;;;;;;;;-144.99;29.65;51885.56;5112900;28;19932;-81
2022/09/22 11:47:24;;;;;;;;;;;;;;;-144.99;30.09;51844.81;5057418;28;19939;-78
2022/09/22 11:49:59;;;;;;;;;;;;;;;-144.99;29.56;52024.16;5113466;28;19928;-80
2022/09/22 11:52:30;;;;;;;;;;;;;;;-144.99;30.47;51895.75;5101865;28;19924;-78
2022/09/22 11:55:14;;;;;;;;;;;;;;;-144.99;30.84;52101.59;5103546;28;19939;-80
2022/09/22 11:57:44;;;;;;;;;;;;;;;-144.99;31.45;52077.16;5095215;28;19931;-80
2022/09/22 12:00:15;;;;;;;;;;;;;;;-144.99;31.97;52093.44;5115575;28;20349;-81
2022/09/22 12:02:46;;;;;;;;;;;;;;;-144.99;32.41;52003.78;5103521;28;19931;-79
2022/09/22 12:05:14;;;;;;;;;;;;;;;-144.99;32.13;52132.19;5102535;28;20440;-80
2022/09/22 12:07:45;;;;;;;;;;;;;;;-144.99;32.95;52179.06;5112724;28;19928;-81
2022/09/22 12:10:16;;;;;;;;;;;;;;;-144.99;33.14;52048.63;5107183;28;19924;-79
2022/09/22 12:12:43;;;;;;;;;;;;;;;-144.99;33.23;51967.09;5106283;28;19967;-81
2022/09/22 12:15:19;;;;;;;;;;;;;;;-144.99;32.48;51918.19;5118611;28;20037;-81
2022/09/22 12:17:51;;;;;;;;;;;;;;;-144.99;31.61;51918.19;5115748;28;19993;-81
2022/09/22 12:20:28;;;;;;;;;;;;;;;-144.99;30.90;52022.13;5101998;28;21506;-78
2022/09/22 12:23:06;;;;;;;;;;;;;;;-144.99;30.73;51869.28;5112627;28;20458;-79
2022/09/22 12:25:43;;;;;;;;;;;;;;;-144.99;30.49;51840.75;5106689;28;19927;-81
2022/09/22 12:28:14;;;;;;;;;;;;;;;-144.99;29.54;51826.47;5100234;28;20425;-73
2022/09/22 12:30:51;;;;;;;;;;;;;;;-144.99;28.70;51865.19;5100275;28;19950;-73
2022/09/22 12:33:18;;;;;;;;;;;;;;;-144.99;28.99;51812.22;5094099;28;19932;-71
2022/09/22 12:35:52;;;;;;;;;;;;;;;-144.99;29.50;52001.75;5090761;28;19927;-75
2022/09/22 12:38:21;;;;;;;;;;;;;;;-144.99;29.81;51995.63;5108688;28;19924;-78
2022/09/22 12:40:48;;;;;;;;;;;;;;;-144.99;30.08;52034.34;5112590;28;19990;-75
2022/09/22 12:43:18;;;;;;;;;;;;;;;-144.99;29.90;51991.56;5111730;28;19974;-76
2022/09/22 12:45:44;;;;;;;;;;;;;;;-144.99;30.99;52056.78;5087597;28;19932;-76
2022/09/22 12:48:15;;;;;;;;;;;;;;;-144.99;30.96;52056.78;5087128;28;20395;-75
2022/09/22 12:50:43;;;;;;;;;;;;;;;-144.99;31.17;52040.47;5101562;28;19923;-78